Time;durP1;ratioP1;P1;durP2;ratioP2;P2;SDS_P1;SDS_P2;PMS_P1;PMS_P2;Temp;Humidity;BMP_temperature;BMP_pressure;BME280_temperature;BME280_humidity;BME280_pressure;Samples;Min_cycle;Max_cycle;Signal;HPM_P1;HPM_P2
2021/01/14 00:02:39;;;;;;;2.25;0.82;;;;;;;;;;5035690;28;20375;-75
2021/01/14 00:05:24;;;;;;;0.63;0.63;;;;;;;;;;5028830;28;20029;-75
2021/01/14 00:08:10;;;;;;;1.35;0.77;;;;;;;;;;5007356;28;20038;-75
2021/01/14 00:10:56;;;;;;;0.70;0.57;;;;;;;;;;5005891;28;20096;-75
2021/01/14 00:13:41;;;;;;;1.13;0.70;;;;;;;;;;4996535;28;20472;-75
2021/01/14 00:16:26;;;;;;;0.60;0.60;;;;;;;;;;5006329;28;20061;-75
2021/01/14 00:19:11;;;;;;;1.08;0.70;;;;;;;;;;5002951;28;20034;-74
2021/01/14 00:21:56;;;;;;;1.23;0.90;;;;;;;;;;5003647;28;20049;-75
2021/01/14 00:24:42;;;;;;;0.85;0.70;;;;;;;;;;5001592;28;20029;-76
2021/01/14 00:27:27;;;;;;;0.80;0.70;;;;;;;;;;5003725;28;20129;-75
2021/01/14 00:30:13;;;;;;;1.52;0.80;;;;;;;;;;5000776;28;20108;-75
2021/01/14 00:32:59;;;;;;;0.73;0.70;;;;;;;;;;5005241;28;20121;-75
2021/01/14 00:35:45;;;;;;;1.45;0.95;;;;;;;;;;5001122;28;20532;-76
2021/01/14 00:38:30;;;;;;;1.67;1.10;;;;;;;;;;5007390;28;20026;-75
2021/01/14 00:41:15;;;;;;;1.20;1.10;;;;;;;;;;5003795;28;20018;-75
2021/01/14 00:44:00;;;;;;;1.45;1.00;;;;;;;;;;5009644;28;20018;-75
2021/01/14 00:46:45;;;;;;;0.95;0.80;;;;;;;;;;5003515;28;20416;-75
2021/01/14 00:49:31;;;;;;;1.88;1.25;;;;;;;;;;5026108;28;20029;-75
2021/01/14 00:52:16;;;;;;;2.33;1.23;;;;;;;;;;5005296;28;20064;-75
2021/01/14 00:55:01;;;;;;;2.35;1.15;;;;;;;;;;5006388;28;20026;-74
2021/01/14 00:57:46;;;;;;;2.28;1.50;;;;;;;;;;5006972;28;20247;-75
2021/01/14 01:00:31;;;;;;;2.42;1.30;;;;;;;;;;5008218;28;20030;-75
2021/01/14 01:03:17;;;;;;;1.73;1.10;;;;;;;;;;5010641;28;20617;-75
2021/01/14 01:06:02;;;;;;;3.28;1.40;;;;;;;;;;5009044;28;20037;-75
2021/01/14 01:08:47;;;;;;;1.92;1.30;;;;;;;;;;5032328;28;20100;-75
2021/01/14 01:11:33;;;;;;;3.58;2.17;;;;;;;;;;5030986;28;20044;-75
2021/01/14 01:14:18;;;;;;;3.63;1.95;;;;;;;;;;5034382;28;20101;-75
2021/01/14 01:17:03;;;;;;;3.63;1.70;;;;;;;;;;5031581;28;20029;-74
2021/01/14 01:19:48;;;;;;;2.90;1.73;;;;;;;;;;5033627;28;20039;-74
2021/01/14 01:22:34;;;;;;;3.20;1.98;;;;;;;;;;5031628;28;20029;-75
2021/01/14 01:25:19;;;;;;;3.08;1.80;;;;;;;;;;5035616;28;20064;-75
2021/01/14 01:28:04;;;;;;;4.35;2.20;;;;;;;;;;5034077;28;20442;-74
2021/01/14 01:30:49;;;;;;;3.80;2.05;;;;;;;;;;5037157;28;20040;-73
2021/01/14 01:33:34;;;;;;;2.92;2.05;;;;;;;;;;5037829;28;20048;-74
2021/01/14 01:36:20;;;;;;;4.50;2.65;;;;;;;;;;5031990;28;20048;-74
2021/01/14 01:39:05;;;;;;;3.38;2.58;;;;;;;;;;5037524;28;20116;-74
2021/01/14 01:41:55;;;;;;;4.78;2.50;;;;;;;;;;5040207;28;20029;-74
2021/01/14 01:44:41;;;;;;;2.85;2.33;;;;;;;;;;5047757;28;20794;-74
2021/01/14 01:47:32;;;;;;;3.55;2.33;;;;;;;;;;5032293;28;20044;-74
2021/01/14 01:50:18;;;;;;;4.57;1.95;;;;;;;;;;5038102;28;20040;-75
2021/01/14 01:53:04;;;;;;;2.75;1.73;;;;;;;;;;5032905;28;20043;-74
2021/01/14 01:55:49;;;;;;;4.35;2.40;;;;;;;;;;5034631;28;20510;-74
2021/01/14 01:58:39;;;;;;;3.97;2.25;;;;;;;;;;5034822;28;20541;-73
2021/01/14 02:01:26;;;;;;;4.03;2.45;;;;;;;;;;5036584;28;20051;-74
2021/01/14 02:04:11;;;;;;;4.10;2.45;;;;;;;;;;5022632;28;20033;-75
2021/01/14 02:07:01;;;;;;;3.45;2.20;;;;;;;;;;5033636;28;20064;-74
2021/01/14 02:09:49;;;;;;;4.40;3.20;;;;;;;;;;5038125;28;20044;-74
2021/01/14 02:12:45;;;;;;;4.97;2.42;;;;;;;;;;5035060;28;20028;-74
2021/01/14 02:15:31;;;;;;;3.85;2.17;;;;;;;;;;5033118;28;20044;-74
2021/01/14 02:18:17;;;;;;;2.55;1.67;;;;;;;;;;5032559;28;20107;-74
2021/01/14 02:21:12;;;;;;;2.60;1.85;;;;;;;;;;5033712;28;20036;-74
2021/01/14 02:24:13;;;;;;;2.50;1.70;;;;;;;;;;5027622;28;20175;-73
2021/01/14 02:26:59;;;;;;;4.32;1.80;;;;;;;;;;5032983;28;20080;-74
2021/01/14 02:29:45;;;;;;;2.55;2.20;;;;;;;;;;5033720;28;20516;-74
2021/01/14 02:32:30;;;;;;;3.13;1.80;;;;;;;;;;5036231;28;20068;-73
2021/01/14 02:35:15;;;;;;;3.03;2.00;;;;;;;;;;5030568;28;20029;-74
2021/01/14 02:38:00;;;;;;;3.10;1.70;;;;;;;;;;5029974;28;20036;-74
2021/01/14 02:40:46;;;;;;;3.28;1.88;;;;;;;;;;5034824;28;20087;-74
2021/01/14 02:43:31;;;;;;;2.42;1.58;;;;;;;;;;5029329;28;20056;-74
2021/01/14 02:46:16;;;;;;;2.53;1.90;;;;;;;;;;5030685;28;20029;-74
2021/01/14 02:49:01;;;;;;;3.22;1.95;;;;;;;;;;5032374;28;20106;-74
2021/01/14 02:51:51;;;;;;;3.33;2.10;;;;;;;;;;5030133;28;20840;-75
2021/01/14 02:54:38;;;;;;;2.60;2.08;;;;;;;;;;5033337;28;20391;-74
2021/01/14 02:57:25;;;;;;;3.95;2.20;;;;;;;;;;5033298;28;20087;-75
2021/01/14 03:00:11;;;;;;;3.78;2.03;;;;;;;;;;5032210;28;20025;-74
2021/01/14 03:02:56;;;;;;;4.95;2.10;;;;;;;;;;5029809;28;20032;-74
2021/01/14 03:05:42;;;;;;;5.03;2.33;;;;;;;;;;5029541;28;20061;-75
2021/01/14 03:08:27;;;;;;;2.15;1.58;;;;;;;;;;5036442;28;20104;-74
2021/01/14 03:11:13;;;;;;;3.55;2.20;;;;;;;;;;5029337;28;20021;-75
2021/01/14 03:13:58;;;;;;;4.47;2.40;;;;;;;;;;5036818;28;20071;-74
2021/01/14 03:16:44;;;;;;;5.10;2.75;;;;;;;;;;5035674;28;20093;-75
2021/01/14 03:19:29;;;;;;;4.82;2.20;;;;;;;;;;5028563;28;20043;-74
2021/01/14 03:22:14;;;;;;;3.17;2.08;;;;;;;;;;5032211;28;20503;-74
2021/01/14 03:24:59;;;;;;;7.57;2.97;;;;;;;;;;5035456;28;20115;-74
2021/01/14 03:27:44;;;;;;;5.45;2.28;;;;;;;;;;5033737;28;20021;-74
2021/01/14 03:30:29;;;;;;;4.07;2.80;;;;;;;;;;5031371;28;20086;-74
2021/01/14 03:33:15;;;;;;;5.00;2.40;;;;;;;;;;5032867;28;20107;-74
2021/01/14 03:36:00;;;;;;;2.40;1.80;;;;;;;;;;5026169;28;20040;-74
2021/01/14 03:41:49;;;;;;;5.47;2.30;;;;;;;;;;5024801;28;20028;-75
2021/01/14 03:44:34;;;;;;;4.20;2.72;;;;;;;;;;5033528;28;20355;-74
2021/01/14 03:47:22;;;;;;;6.38;3.95;;;;;;;;;;5030081;28;20017;-75
2021/01/14 03:50:08;;;;;;;4.78;2.30;;;;;;;;;;5032541;28;20662;-75
2021/01/14 03:52:53;;;;;;;4.18;2.22;;;;;;;;;;5028614;28;20056;-75
2021/01/14 03:55:38;;;;;;;4.68;2.50;;;;;;;;;;5033742;28;20079;-74
2021/01/14 03:58:23;;;;;;;5.63;2.53;;;;;;;;;;5028703;28;20039;-74
2021/01/14 04:01:09;;;;;;;6.30;2.47;;;;;;;;;;5033687;28;20021;-74
2021/01/14 04:03:54;;;;;;;3.05;2.22;;;;;;;;;;5026269;28;20590;-75
2021/01/14 04:06:39;;;;;;;5.82;2.55;;;;;;;;;;5032266;28;20732;-74
2021/01/14 04:09:24;;;;;;;6.35;2.95;;;;;;;;;;5031217;28;20032;-75
2021/01/14 04:12:09;;;;;;;4.68;2.97;;;;;;;;;;5034574;28;20024;-74
2021/01/14 04:14:55;;;;;;;5.18;2.58;;;;;;;;;;5030656;28;20032;-75
2021/01/14 04:17:40;;;;;;;5.40;2.95;;;;;;;;;;5030999;28;20170;-75
2021/01/14 04:20:25;;;;;;;4.90;2.53;;;;;;;;;;5031512;28;20033;-75
2021/01/14 04:23:11;;;;;;;5.57;2.80;;;;;;;;;;5033598;28;20028;-75
2021/01/14 04:25:56;;;;;;;4.25;2.53;;;;;;;;;;5032793;28;20112;-75
2021/01/14 04:28:41;;;;;;;6.15;3.50;;;;;;;;;;5035138;28;20503;-75
2021/01/14 04:31:26;;;;;;;5.63;2.67;;;;;;;;;;5036594;28;20035;-75
2021/01/14 04:34:11;;;;;;;3.95;2.50;;;;;;;;;;5020424;28;20032;-75
2021/01/14 04:37:00;;;;;;;6.13;2.85;;;;;;;;;;5046603;28;20029;-75
2021/01/14 04:39:46;;;;;;;4.83;2.80;;;;;;;;;;5028921;28;20159;-75
2021/01/14 04:42:33;;;;;;;6.03;2.97;;;;;;;;;;5029385;28;20538;-74
2021/01/14 04:45:19;;;;;;;5.00;2.92;;;;;;;;;;5033780;28;20539;-75
2021/01/14 04:48:05;;;;;;;5.72;2.78;;;;;;;;;;5034756;28;20066;-75
2021/01/14 04:50:50;;;;;;;5.47;3.35;;;;;;;;;;5023689;28;20491;-75
2021/01/14 04:53:40;;;;;;;6.20;3.20;;;;;;;;;;5034963;28;20032;-75
2021/01/14 04:56:31;;;;;;;8.15;3.78;;;;;;;;;;5029618;28;20132;-75
2021/01/14 04:59:17;;;;;;;6.90;3.75;;;;;;;;;;5031257;28;20037;-75
2021/01/14 05:02:05;;;;;;;6.30;3.10;;;;;;;;;;5037930;28;20032;-75
2021/01/14 05:04:51;;;;;;;7.82;3.40;;;;;;;;;;5034529;28;20065;-77
2021/01/14 05:07:44;;;;;;;5.28;2.80;;;;;;;;;;5031078;28;20068;-74
2021/01/14 05:10:30;;;;;;;6.45;2.95;;;;;;;;;;5028945;28;20108;-75
2021/01/14 05:13:15;;;;;;;5.97;3.08;;;;;;;;;;5033123;28;20040;-75
2021/01/14 05:16:03;;;;;;;6.47;3.33;;;;;;;;;;5034202;28;20082;-75
2021/01/14 05:18:49;;;;;;;5.82;3.13;;;;;;;;;;5041299;28;20128;-75
2021/01/14 05:21:34;;;;;;;7.03;3.63;;;;;;;;;;5030565;28;20031;-75
2021/01/14 05:24:19;;;;;;;4.63;3.13;;;;;;;;;;5030562;28;20028;-75
2021/01/14 05:27:20;;;;;;;5.25;2.80;;;;;;;;;;5030310;28;20086;-75
2021/01/14 05:30:06;;;;;;;4.32;2.78;;;;;;;;;;5037538;28;20124;-75
2021/01/14 05:32:51;;;;;;;4.97;3.00;;;;;;;;;;5032549;28;20119;-77
2021/01/14 05:35:36;;;;;;;6.95;3.25;;;;;;;;;;5026633;28;20468;-75
2021/01/14 05:38:32;;;;;;;5.68;3.10;;;;;;;;;;5030228;28;20025;-75
2021/01/14 05:41:21;;;;;;;5.28;3.22;;;;;;;;;;5025998;28;20029;-75
2021/01/14 05:44:06;;;;;;;6.55;3.08;;;;;;;;;;5033627;28;20037;-74
2021/01/14 05:46:51;;;;;;;6.70;3.25;;;;;;;;;;5029234;28;20044;-75
2021/01/14 05:49:36;;;;;;;8.25;3.47;;;;;;;;;;5025187;28;20025;-74
2021/01/14 05:52:22;;;;;;;8.13;3.22;;;;;;;;;;5027226;28;20371;-75
2021/01/14 05:55:09;;;;;;;6.40;3.35;;;;;;;;;;5033291;28;20017;-74
2021/01/14 05:58:01;;;;;;;6.60;3.55;;;;;;;;;;5041698;28;20025;-74
2021/01/14 06:00:48;;;;;;;6.72;3.20;;;;;;;;;;5030615;28;20040;-74
2021/01/14 06:03:33;;;;;;;6.50;3.88;;;;;;;;;;5030643;28;20319;-75
2021/01/14 06:06:19;;;;;;;7.40;3.90;;;;;;;;;;5031605;28;20776;-74
2021/01/14 06:09:08;;;;;;;7.93;3.97;;;;;;;;;;5037967;28;20411;-75
2021/01/14 06:12:06;;;;;;;6.38;3.40;;;;;;;;;;5034756;28;20036;-74
2021/01/14 06:14:51;;;;;;;8.00;4.10;;;;;;;;;;5036336;28;20552;-76
2021/01/14 06:17:38;;;;;;;6.53;3.65;;;;;;;;;;5033722;28;20029;-74
2021/01/14 06:20:24;;;;;;;9.57;4.85;;;;;;;;;;5026215;28;20037;-76
2021/01/14 06:23:10;;;;;;;5.88;3.42;;;;;;;;;;5029780;28;20104;-76
2021/01/14 06:25:56;;;;;;;11.13;4.63;;;;;;;;;;5036804;28;20064;-74
2021/01/14 06:28:41;;;;;;;9.50;4.10;;;;;;;;;;5026597;28;20033;-76
2021/01/14 06:31:26;;;;;;;6.82;4.13;;;;;;;;;;5034314;28;20482;-76
2021/01/14 06:34:16;;;;;;;7.07;3.88;;;;;;;;;;5029553;28;20059;-75
2021/01/14 06:37:09;;;;;;;8.73;3.78;;;;;;;;;;5033599;28;20025;-76
2021/01/14 06:39:55;;;;;;;9.80;4.47;;;;;;;;;;5032033;28;20045;-75
2021/01/14 06:42:47;;;;;;;6.35;3.92;;;;;;;;;;5031999;28;20021;-75
2021/01/14 06:45:41;;;;;;;6.78;4.53;;;;;;;;;;5030643;28;20053;-75
2021/01/14 06:48:29;;;;;;;8.48;4.13;;;;;;;;;;5033834;28;20029;-75
2021/01/14 06:51:22;;;;;;;6.15;3.60;;;;;;;;;;5032262;28;20100;-75
2021/01/14 06:54:09;;;;;;;5.53;3.47;;;;;;;;;;5029213;28;20024;-75
2021/01/14 06:56:56;;;;;;;10.00;3.78;;;;;;;;;;5028400;28;20032;-74
2021/01/14 06:59:42;;;;;;;7.97;4.10;;;;;;;;;;5030923;28;20040;-75
2021/01/14 07:02:30;;;;;;;7.05;4.40;;;;;;;;;;5031474;28;20031;-75
2021/01/14 07:05:19;;;;;;;6.45;4.00;;;;;;;;;;5037684;28;20470;-76
2021/01/14 07:08:24;;;;;;;8.55;4.15;;;;;;;;;;5037291;28;20398;-75
2021/01/14 07:11:15;;;;;;;8.20;3.95;;;;;;;;;;5022711;28;20045;-75
2021/01/14 07:14:13;;;;;;;11.40;4.72;;;;;;;;;;5031638;28;20029;-75
2021/01/14 07:16:59;;;;;;;8.07;4.13;;;;;;;;;;5032856;28;20025;-75
2021/01/14 07:19:44;;;;;;;10.18;4.70;;;;;;;;;;5034051;28;20136;-75
2021/01/14 07:22:30;;;;;;;9.77;5.30;;;;;;;;;;5036493;28;20360;-75
2021/01/14 07:25:16;;;;;;;13.07;8.10;;;;;;;;;;5033342;28;20614;-75
2021/01/14 07:28:01;;;;;;;11.82;5.13;;;;;;;;;;5033111;28;20029;-74
2021/01/14 07:30:46;;;;;;;9.68;4.88;;;;;;;;;;5028097;28;20021;-76
2021/01/14 07:33:32;;;;;;;10.20;5.45;;;;;;;;;;5029976;28;20400;-77
2021/01/14 07:36:17;;;;;;;8.13;4.30;;;;;;;;;;5033759;28;20021;-76
2021/01/14 07:39:02;;;;;;;8.95;4.80;;;;;;;;;;5032542;28;20026;-76
2021/01/14 07:41:55;;;;;;;6.97;4.22;;;;;;;;;;5030292;28;20025;-76
2021/01/14 07:44:40;;;;;;;8.32;4.88;;;;;;;;;;5035725;28;20375;-76
2021/01/14 07:47:32;;;;;;;7.93;4.57;;;;;;;;;;5038593;28;20069;-74
2021/01/14 07:50:19;;;;;;;11.20;5.30;;;;;;;;;;5040211;28;20029;-76
2021/01/14 07:53:12;;;;;;;8.68;5.38;;;;;;;;;;5033049;28;20078;-76
2021/01/14 07:56:17;;;;;;;9.65;4.82;;;;;;;;;;5030263;28;20113;-76
2021/01/14 07:59:03;;;;;;;8.75;4.82;;;;;;;;;;5035181;28;20024;-76
2021/01/14 08:02:07;;;;;;;8.00;4.25;;;;;;;;;;5031966;28;20041;-76
2021/01/14 08:04:53;;;;;;;8.32;5.03;;;;;;;;;;5033589;28;20159;-76
2021/01/14 08:07:39;;;;;;;8.07;4.22;;;;;;;;;;5028063;28;20055;-76
2021/01/14 08:10:24;;;;;;;11.48;6.38;;;;;;;;;;5034877;28;20032;-76
2021/01/14 08:13:09;;;;;;;10.32;4.90;;;;;;;;;;5035949;28;20115;-76
2021/01/14 08:15:54;;;;;;;8.77;5.40;;;;;;;;;;5034363;28;20065;-76
2021/01/14 08:18:40;;;;;;;12.50;7.13;;;;;;;;;;5029724;28;20039;-75
2021/01/14 08:21:28;;;;;;;9.85;5.03;;;;;;;;;;5033035;28;20037;-75
2021/01/14 08:24:37;;;;;;;8.85;4.35;;;;;;;;;;5030724;28;20025;-75
2021/01/14 08:27:38;;;;;;;7.18;4.60;;;;;;;;;;5034097;28;20036;-77
2021/01/14 08:30:24;;;;;;;10.10;4.43;;;;;;;;;;5041749;28;20032;-75
2021/01/14 08:33:09;;;;;;;23.48;12.13;;;;;;;;;;5039388;28;20016;-77
2021/01/14 08:36:03;;;;;;;10.43;5.63;;;;;;;;;;5039126;28;20031;-75
2021/01/14 08:38:49;;;;;;;13.73;5.05;;;;;;;;;;5034428;28;20386;-75
2021/01/14 08:41:35;;;;;;;10.40;5.80;;;;;;;;;;5035667;28;20044;-78
2021/01/14 08:44:28;;;;;;;9.45;5.07;;;;;;;;;;5033623;28;20024;-77
2021/01/14 08:47:13;;;;;;;13.80;7.07;;;;;;;;;;5035072;28;20557;-75
2021/01/14 08:50:02;;;;;;;9.43;5.95;;;;;;;;;;5030058;28;20116;-75
2021/01/14 08:52:50;;;;;;;12.15;5.97;;;;;;;;;;5033684;28;20049;-76
2021/01/14 08:55:35;;;;;;;11.32;4.65;;;;;;;;;;5028934;28;20371;-75
2021/01/14 08:58:21;;;;;;;10.05;4.47;;;;;;;;;;5034924;28;20035;-76
2021/01/14 09:01:08;;;;;;;11.52;4.15;;;;;;;;;;5031284;28;20028;-76
2021/01/14 09:03:54;;;;;;;9.25;4.65;;;;;;;;;;5039038;28;20043;-76
2021/01/14 09:06:40;;;;;;;7.85;4.47;;;;;;;;;;5031959;28;20109;-77
2021/01/14 09:09:26;;;;;;;10.88;5.13;;;;;;;;;;5030095;28;21912;-77
2021/01/14 09:12:11;;;;;;;9.50;4.90;;;;;;;;;;5014672;28;20032;-76
2021/01/14 09:14:56;;;;;;;8.85;4.55;;;;;;;;;;5026588;28;20437;-76
2021/01/14 09:17:41;;;;;;;9.65;4.95;;;;;;;;;;5032845;28;20395;-75
2021/01/14 09:20:29;;;;;;;8.93;5.13;;;;;;;;;;5030696;28;20102;-76
2021/01/14 09:23:17;;;;;;;12.93;5.45;;;;;;;;;;5036231;28;20355;-76
2021/01/14 09:26:13;;;;;;;8.68;5.75;;;;;;;;;;5035017;28;20500;-76
2021/01/14 09:28:58;;;;;;;9.95;5.40;;;;;;;;;;5026866;28;20036;-76
2021/01/14 09:31:43;;;;;;;12.05;6.05;;;;;;;;;;5028211;28;20064;-76
2021/01/14 09:34:28;;;;;;;44.05;27.77;;;;;;;;;;5032133;28;20029;-77
2021/01/14 09:37:17;;;;;;;15.10;9.60;;;;;;;;;;5025361;28;20037;-76
2021/01/14 09:40:10;;;;;;;12.48;6.53;;;;;;;;;;5038015;28;20368;-76
2021/01/14 09:42:58;;;;;;;9.77;5.38;;;;;;;;;;5037437;28;20029;-76
2021/01/14 09:45:45;;;;;;;9.43;4.80;;;;;;;;;;5035478;28;20028;-75
2021/01/14 09:48:33;;;;;;;14.07;5.55;;;;;;;;;;5035831;28;20025;-75
2021/01/14 09:51:18;;;;;;;11.48;6.32;;;;;;;;;;5036127;28;20027;-78
2021/01/14 09:54:04;;;;;;;9.60;4.85;;;;;;;;;;5037306;28;20028;-76
2021/01/14 09:56:50;;;;;;;11.95;5.90;;;;;;;;;;5033526;28;20702;-76
2021/01/14 09:59:40;;;;;;;12.00;6.20;;;;;;;;;;5050752;28;20044;-77
2021/01/14 10:02:28;;;;;;;9.88;6.00;;;;;;;;;;5031714;28;20110;-76
2021/01/14 10:05:14;;;;;;;12.15;6.07;;;;;;;;;;5031961;28;20464;-76
2021/01/14 10:08:01;;;;;;;9.00;5.43;;;;;;;;;;5031549;28;20052;-77
2021/01/14 10:10:47;;;;;;;10.75;5.85;;;;;;;;;;5035099;28;20072;-76
2021/01/14 10:13:33;;;;;;;14.50;6.13;;;;;;;;;;5031527;28;20036;-76
2021/01/14 10:16:18;;;;;;;14.23;6.25;;;;;;;;;;5037484;28;20357;-77
2021/01/14 10:19:08;;;;;;;9.82;5.30;;;;;;;;;;5033602;28;20088;-77
2021/01/14 10:21:53;;;;;;;10.57;5.20;;;;;;;;;;5036564;28;20142;-77
2021/01/14 10:24:38;;;;;;;10.52;5.75;;;;;;;;;;5035518;28;20024;-77
2021/01/14 10:27:23;;;;;;;11.23;4.57;;;;;;;;;;5037266;28;20031;-77
2021/01/14 10:30:15;;;;;;;6.75;4.28;;;;;;;;;;5043435;28;20064;-77
2021/01/14 10:33:04;;;;;;;8.45;4.75;;;;;;;;;;5032824;28;20103;-77
2021/01/14 10:35:53;;;;;;;12.30;5.15;;;;;;;;;;5038053;28;20483;-77
2021/01/14 10:38:49;;;;;;;8.75;4.15;;;;;;;;;;5035262;28;20029;-76
2021/01/14 10:41:34;;;;;;;11.48;4.57;;;;;;;;;;5043219;28;20122;-77
2021/01/14 10:44:24;;;;;;;11.65;4.50;;;;;;;;;;5036935;28;20440;-77
2021/01/14 10:47:13;;;;;;;15.13;5.78;;;;;;;;;;5043202;28;20365;-76
2021/01/14 10:49:59;;;;;;;10.68;6.55;;;;;;;;;;5033479;28;20032;-78
2021/01/14 10:53:03;;;;;;;6.50;4.43;;;;;;;;;;5039146;28;20024;-77
2021/01/14 10:55:58;;;;;;;8.88;4.13;;;;;;;;;;5034210;28;20031;-77
2021/01/14 10:58:43;;;;;;;7.25;3.72;;;;;;;;;;5033531;28;20388;-78
2021/01/14 11:01:29;;;;;;;5.85;3.85;;;;;;;;;;5035481;28;20039;-76
2021/01/14 11:04:14;;;;;;;8.50;3.75;;;;;;;;;;5042784;28;20379;-75
2021/01/14 11:07:10;;;;;;;9.85;4.55;;;;;;;;;;5037858;28;20064;-76
2021/01/14 11:09:56;;;;;;;7.93;4.57;;;;;;;;;;5035443;28;20494;-76
2021/01/14 11:13:00;;;;;;;8.70;5.82;;;;;;;;;;5036894;28;20085;-78
2021/01/14 11:15:45;;;;;;;8.38;5.90;;;;;;;;;;5031916;28;20391;-75
2021/01/14 11:18:30;;;;;;;8.10;4.60;;;;;;;;;;5036760;28;20025;-76
2021/01/14 11:21:27;;;;;;;75.78;46.78;;;;;;;;;;5030213;28;20497;-77
2021/01/14 11:24:14;;;;;;;12.75;7.97;;;;;;;;;;5032856;28;20064;-75
2021/01/14 11:26:59;;;;;;;9.82;5.07;;;;;;;;;;5037839;28;20098;-77
2021/01/14 11:29:44;;;;;;;9.88;5.95;;;;;;;;;;5032224;28;20068;-76
2021/01/14 11:32:31;;;;;;;13.90;5.28;;;;;;;;;;5031462;28;20078;-77
2021/01/14 11:35:16;;;;;;;10.60;5.53;;;;;;;;;;5035258;28;20560;-76
2021/01/14 11:38:02;;;;;;;12.45;5.00;;;;;;;;;;5045607;28;20029;-76
2021/01/14 11:40:47;;;;;;;13.25;6.68;;;;;;;;;;5030800;28;20064;-78
2021/01/14 11:43:33;;;;;;;10.82;5.45;;;;;;;;;;5032155;28;20025;-77
2021/01/14 11:46:24;;;;;;;12.65;5.78;;;;;;;;;;5029477;28;20041;-76
2021/01/14 11:49:10;;;;;;;6.97;4.40;;;;;;;;;;5033150;28;20040;-80
2021/01/14 11:51:55;;;;;;;11.15;5.10;;;;;;;;;;5032563;28;20046;-78
2021/01/14 11:54:40;;;;;;;9.25;5.22;;;;;;;;;;5033265;28;20039;-77
2021/01/14 11:57:29;;;;;;;10.48;4.55;;;;;;;;;;5032693;28;20394;-77
2021/01/14 12:00:14;;;;;;;15.55;4.85;;;;;;;;;;5034924;28;20479;-76
2021/01/14 12:03:01;;;;;;;7.72;4.68;;;;;;;;;;5030056;28;20586;-76
2021/01/14 12:05:46;;;;;;;9.65;5.43;;;;;;;;;;5030873;28;20043;-77
2021/01/14 12:08:31;;;;;;;11.27;4.43;;;;;;;;;;5028366;28;20095;-77
2021/01/14 12:11:17;;;;;;;12.15;4.85;;;;;;;;;;5029123;28;20412;-77
2021/01/14 12:14:02;;;;;;;10.02;5.10;;;;;;;;;;5030834;28;20379;-76
2021/01/14 12:16:48;;;;;;;10.88;4.93;;;;;;;;;;5025178;28;20028;-76
2021/01/14 12:19:33;;;;;;;13.90;5.55;;;;;;;;;;5028084;28;20104;-77
2021/01/14 12:22:18;;;;;;;12.63;4.32;;;;;;;;;;5016801;28;20032;-75
2021/01/14 12:25:05;;;;;;;8.73;4.07;;;;;;;;;;5033606;28;20044;-76
2021/01/14 12:27:50;;;;;;;13.70;4.80;;;;;;;;;;5031910;28;20108;-78
2021/01/14 12:30:36;;;;;;;10.35;5.20;;;;;;;;;;5034620;28;20478;-78
2021/01/14 12:33:21;;;;;;;8.05;4.38;;;;;;;;;;5032610;28;20041;-77
2021/01/14 12:36:06;;;;;;;9.90;5.07;;;;;;;;;;5031238;28;20437;-77
2021/01/14 12:38:51;;;;;;;9.65;3.92;;;;;;;;;;5033370;28;20430;-77
2021/01/14 12:41:37;;;;;;;11.90;4.07;;;;;;;;;;5032227;28;20143;-77
2021/01/14 12:44:22;;;;;;;10.20;3.53;;;;;;;;;;5025493;28;20052;-76
2021/01/14 12:47:09;;;;;;;9.07;4.10;;;;;;;;;;5030080;28;20032;-77
2021/01/14 12:49:54;;;;;;;10.98;4.13;;;;;;;;;;5030544;28;20029;-76
2021/01/14 12:52:39;;;;;;;7.28;3.30;;;;;;;;;;5034153;28;20044;-75
2021/01/14 12:55:25;;;;;;;10.50;3.55;;;;;;;;;;5037302;28;20017;-77
2021/01/14 12:58:10;;;;;;;10.15;4.30;;;;;;;;;;5034439;28;20032;-77
2021/01/14 13:00:55;;;;;;;8.50;3.97;;;;;;;;;;5041064;28;20474;-76
2021/01/14 13:03:40;;;;;;;10.40;3.88;;;;;;;;;;5019289;28;20054;-75
2021/01/14 13:06:26;;;;;;;7.50;4.05;;;;;;;;;;5035031;28;20442;-75
2021/01/14 13:09:11;;;;;;;10.15;4.85;;;;;;;;;;5030936;28;20021;-75
2021/01/14 13:11:57;;;;;;;9.13;4.22;;;;;;;;;;5035758;28;20384;-76
2021/01/14 13:14:42;;;;;;;10.55;5.47;;;;;;;;;;5033331;28;20041;-78
2021/01/14 13:17:28;;;;;;;11.95;4.53;;;;;;;;;;5032294;28;20025;-77
2021/01/14 13:20:13;;;;;;;11.40;4.47;;;;;;;;;;5033433;28;20036;-77
2021/01/14 13:22:58;;;;;;;6.35;3.40;;;;;;;;;;5034896;28;20040;-77
2021/01/14 13:25:43;;;;;;;10.02;3.90;;;;;;;;;;5031582;28;20484;-77
2021/01/14 13:28:29;;;;;;;8.93;4.10;;;;;;;;;;5042087;28;20383;-77
2021/01/14 13:31:14;;;;;;;8.93;3.70;;;;;;;;;;5035555;28;20040;-76
2021/01/14 13:33:59;;;;;;;10.13;3.78;;;;;;;;;;5034888;28;20104;-77
2021/01/14 13:36:45;;;;;;;9.38;3.97;;;;;;;;;;5030954;28;20052;-77
2021/01/14 13:39:31;;;;;;;33.80;16.95;;;;;;;;;;5040675;28;20025;-77
2021/01/14 13:42:16;;;;;;;14.90;8.32;;;;;;;;;;5044947;28;20032;-73
2021/01/14 13:45:01;;;;;;;9.68;4.45;;;;;;;;;;5033450;28;20068;-73
2021/01/14 13:47:46;;;;;;;8.27;4.10;;;;;;;;;;5035816;28;20468;-73
2021/01/14 13:50:31;;;;;;;11.45;4.70;;;;;;;;;;5030868;28;20035;-73
2021/01/14 13:53:17;;;;;;;7.93;3.75;;;;;;;;;;5036472;28;20044;-76
2021/01/14 13:56:03;;;;;;;10.48;4.32;;;;;;;;;;5034564;28;20033;-75
2021/01/14 13:58:48;;;;;;;7.70;4.13;;;;;;;;;;5035410;28;20023;-75
2021/01/14 14:01:35;;;;;;;7.78;3.50;;;;;;;;;;5039745;28;20039;-75
2021/01/14 14:04:21;;;;;;;8.20;4.25;;;;;;;;;;5038168;28;20032;-75
2021/01/14 14:07:06;;;;;;;11.80;4.78;;;;;;;;;;5039055;28;20491;-75
2021/01/14 14:09:51;;;;;;;8.30;4.05;;;;;;;;;;5035975;28;20032;-76
2021/01/14 14:12:36;;;;;;;8.88;3.92;;;;;;;;;;5039433;28;20025;-76
2021/01/14 14:15:21;;;;;;;9.82;3.80;;;;;;;;;;5041579;28;20052;-76
2021/01/14 14:18:07;;;;;;;9.98;4.72;;;;;;;;;;5034433;28;20013;-75
2021/01/14 14:20:52;;;;;;;10.82;5.20;;;;;;;;;;5036013;28;20082;-75
2021/01/14 14:23:37;;;;;;;11.35;4.75;;;;;;;;;;5034926;28;20387;-76
2021/01/14 14:26:30;;;;;;;29.73;17.05;;;;;;;;;;5039766;28;20083;-76
2021/01/14 14:29:15;;;;;;;9.07;4.57;;;;;;;;;;5041850;28;20029;-76
2021/01/14 14:32:00;;;;;;;10.60;4.28;;;;;;;;;;5035430;28;20041;-77
2021/01/14 14:34:49;;;;;;;11.93;4.00;;;;;;;;;;5034635;28;20040;-76
2021/01/14 14:37:34;;;;;;;8.98;4.70;;;;;;;;;;5032951;28;20028;-76
2021/01/14 14:40:19;;;;;;;8.48;3.70;;;;;;;;;;5033039;28;20119;-76
2021/01/14 14:43:04;;;;;;;6.05;3.55;;;;;;;;;;5036500;28;20089;-75
2021/01/14 14:45:50;;;;;;;8.95;2.78;;;;;;;;;;5043918;28;20019;-74
2021/01/14 14:48:35;;;;;;;8.43;3.03;;;;;;;;;;5022587;28;20059;-75
2021/01/14 14:51:21;;;;;;;9.30;3.05;;;;;;;;;;5019536;28;20105;-74
2021/01/14 14:54:06;;;;;;;7.30;4.80;;;;;;;;;;5034567;28;20048;-74
2021/01/14 14:56:52;;;;;;;13.00;8.10;;;;;;;;;;5033775;28;20119;-73
2021/01/14 14:59:37;;;;;;;8.02;4.28;;;;;;;;;;5033953;28;20017;-74
2021/01/14 15:02:22;;;;;;;7.68;3.45;;;;;;;;;;5037295;28;20032;-74
2021/01/14 15:05:08;;;;;;;4.70;2.28;;;;;;;;;;5031950;28;20025;-75
2021/01/14 15:07:53;;;;;;;5.30;2.63;;;;;;;;;;5032000;28;20048;-74
2021/01/14 15:10:38;;;;;;;3.53;2.65;;;;;;;;;;5033679;28;20550;-75
2021/01/14 15:13:23;;;;;;;5.75;2.63;;;;;;;;;;5030357;28;20047;-74
2021/01/14 15:16:09;;;;;;;5.68;2.58;;;;;;;;;;5033547;28;20585;-75
2021/01/14 15:18:54;;;;;;;6.70;3.17;;;;;;;;;;5034106;28;20035;-75
2021/01/14 15:21:39;;;;;;;6.05;3.10;;;;;;;;;;5033782;28;20025;-75
2021/01/14 15:24:24;;;;;;;6.05;2.95;;;;;;;;;;5030287;28;20033;-75
2021/01/14 15:27:10;;;;;;;44.58;28.13;;;;;;;;;;5032291;28;20040;-75
2021/01/14 15:29:56;;;;;;;12.82;6.97;;;;;;;;;;5032056;28;20028;-75
2021/01/14 15:32:41;;;;;;;7.55;3.90;;;;;;;;;;5035385;28;20547;-74
2021/01/14 15:35:26;;;;;;;5.55;3.33;;;;;;;;;;5034597;28;20486;-74
2021/01/14 15:38:11;;;;;;;6.75;2.72;;;;;;;;;;5032648;28;20368;-74
2021/01/14 15:40:58;;;;;;;3.80;2.55;;;;;;;;;;5029981;28;20099;-75
2021/01/14 15:43:43;;;;;;;8.73;3.45;;;;;;;;;;5029331;28;20249;-73
2021/01/14 15:46:29;;;;;;;5.13;2.70;;;;;;;;;;5030167;28;20479;-73
2021/01/14 15:49:14;;;;;;;6.78;2.92;;;;;;;;;;5032658;28;20028;-75
2021/01/14 15:52:00;;;;;;;4.53;2.78;;;;;;;;;;5025040;28;20139;-75
2021/01/14 15:54:45;;;;;;;4.97;2.35;;;;;;;;;;5031348;28;20340;-75
2021/01/14 15:57:31;;;;;;;5.07;2.97;;;;;;;;;;5029298;28;20479;-75
2021/01/14 16:00:17;;;;;;;7.20;2.97;;;;;;;;;;5027518;28;20048;-74
2021/01/14 16:03:02;;;;;;;3.80;2.50;;;;;;;;;;5032435;28;20029;-76
2021/01/14 16:05:48;;;;;;;5.07;2.65;;;;;;;;;;5024113;28;20024;-76
2021/01/14 16:08:33;;;;;;;6.30;2.85;;;;;;;;;;5031735;28;20086;-77
2021/01/14 16:11:19;;;;;;;7.00;2.97;;;;;;;;;;5014644;28;20127;-79
2021/01/14 16:14:04;;;;;;;5.90;2.78;;;;;;;;;;5032438;28;20357;-78
2021/01/14 16:16:49;;;;;;;4.18;2.50;;;;;;;;;;5030135;28;20399;-77
2021/01/14 16:19:35;;;;;;;5.35;2.75;;;;;;;;;;5031553;28;20025;-78
2021/01/14 16:22:20;;;;;;;6.10;4.03;;;;;;;;;;5029845;28;20053;-75
2021/01/14 16:25:06;;;;;;;4.50;3.13;;;;;;;;;;5033593;28;20025;-76
2021/01/14 16:27:51;;;;;;;5.32;2.88;;;;;;;;;;5030213;28;20104;-78
2021/01/14 16:30:36;;;;;;;7.15;3.75;;;;;;;;;;5029352;28;20033;-75
2021/01/14 16:33:21;;;;;;;5.82;3.28;;;;;;;;;;5029074;28;20021;-78
2021/01/14 16:36:07;;;;;;;4.40;2.70;;;;;;;;;;5032642;28;20537;-75
2021/01/14 16:38:52;;;;;;;5.63;2.95;;;;;;;;;;5028818;28;20040;-75
2021/01/14 16:41:37;;;;;;;4.63;2.67;;;;;;;;;;5029245;28;20032;-75